Аэропорт: Хабаровск-Новый. Хабаровск

ICAO: UHHH

METAR:
2020-06-01 03:00:00
UHHH 010300Z 36003MPS 310V050 CAVOK 25/09 Q1000 R23L/090060 NOSIG RMK QFE743/0991
METAR:
2020-06-01 01:45:00
TAF UHHH 010145Z 0103/0209 18003MPS 9999 SCT025CB TEMPO 0103/0109 20006MPS TEMPO 0109/0118 12003MPS 3100 -SHRA SCT011 BKN020CB